Time;durP1;ratioP1;P1;durP2;ratioP2;P2;SDS_P1;SDS_P2;PMS_P1;PMS_P2;Temp;Humidity;BMP_temperature;BMP_pressure;BME280_temperature;BME280_humidity;BME280_pressure;Samples;Min_cycle;Max_cycle;Signal;HPM_P1;HPM_P2
2021/11/04 00:02:07;;;;;;;37.10;17.63;;;8.30;95.90;;;;;;5072753;28;20037;-58
2021/11/04 00:04:33;;;;;;;43.97;17.75;;;7.90;96.40;;;;;;5045302;28;20388;-58
2021/11/04 00:06:59;;;;;;;42.80;18.67;;;8.00;97.60;;;;;;5072614;28;20096;-58
2021/11/04 00:09:24;;;;;;;53.15;17.95;;;8.60;98.30;;;;;;5073767;28;20030;-62
2021/11/04 00:11:50;;;;;;;25.35;18.17;;;9.20;98.10;;;;;;5074021;28;20096;-58
2021/11/04 00:14:16;;;;;;;26.35;18.85;;;9.80;97.60;;;;;;5073329;28;20090;-58
2021/11/04 00:16:42;;;;;;;25.92;19.08;;;10.40;98.00;;;;;;5074152;28;20397;-59
2021/11/04 00:19:08;;;;;;;35.28;21.17;;;11.10;97.50;;;;;;5071778;28;20060;-58
2021/11/04 00:21:33;;;;;;;31.88;21.35;;;11.80;97.30;;;;;;5074481;28;20167;-59
2021/11/04 00:23:59;;;;;;;32.63;20.90;;;12.40;97.20;;;;;;5074355;28;20097;-58
2021/11/04 00:26:25;;;;;;;27.95;21.00;;;13.00;96.90;;;;;;5074723;28;20060;-58
2021/11/04 00:28:53;;;;;;;26.35;19.00;;;13.40;96.40;;;;;;5072548;28;20106;-58
2021/11/04 00:31:19;;;;;;;25.23;18.80;;;13.70;96.00;;;;;;5072813;28;20124;-58
2021/11/04 00:33:45;;;;;;;26.02;18.88;;;13.90;95.70;;;;;;5072883;28;20150;-58
2021/11/04 00:36:11;;;;;;;25.52;18.27;;;14.20;95.30;;;;;;5073310;28;20154;-58
2021/11/04 00:38:36;;;;;;;22.90;17.95;;;14.40;95.00;;;;;;5088823;28;20036;-58
2021/11/04 00:41:03;;;;;;;26.60;18.52;;;14.60;94.70;;;;;;5072745;28;20033;-58
2021/11/04 00:43:28;;;;;;;24.70;18.38;;;14.80;94.30;;;;;;5059298;28;20040;-58
2021/11/04 00:45:54;;;;;;;24.88;18.85;;;14.90;94.00;;;;;;5075849;28;20036;-58
2021/11/04 00:48:20;;;;;;;25.33;18.85;;;14.80;93.30;;;;;;5071085;28;20040;-59
2021/11/04 00:50:46;;;;;;;23.33;18.17;;;14.70;93.40;;;;;;5072856;28;20404;-58
2021/11/04 00:53:11;;;;;;;21.83;16.77;;;14.80;93.60;;;;;;5071608;28;20116;-58
2021/11/04 00:55:37;;;;;;;22.35;17.80;;;15.00;93.50;;;;;;5072999;28;20130;-58
2021/11/04 00:58:03;;;;;;;23.25;17.65;;;15.10;93.20;;;;;;5087210;28;20047;-58
2021/11/04 01:00:29;;;;;;;21.95;16.92;;;15.20;92.90;;;;;;5070099;28;20036;-58
2021/11/04 01:02:55;;;;;;;20.80;16.63;;;15.30;92.50;;;;;;5059881;28;20037;-58
2021/11/04 01:05:21;;;;;;;21.60;16.40;;;15.50;92.10;;;;;;5072155;28;20135;-58
2021/11/04 01:07:46;;;;;;;20.63;16.25;;;15.60;91.80;;;;;;5072126;28;20051;-59
2021/11/04 01:10:12;;;;;;;19.95;15.68;;;15.60;91.50;;;;;;5070992;28;20045;-58
2021/11/04 01:12:38;;;;;;;20.58;15.43;;;15.70;91.20;;;;;;5071792;28;20071;-58
2021/11/04 01:15:05;;;;;;;18.98;14.90;;;15.80;91.00;;;;;;5070668;28;20460;-58
2021/11/04 01:17:31;;;;;;;18.02;13.90;;;15.80;90.80;;;;;;5071791;28;20135;-58
2021/11/04 01:19:57;;;;;;;17.55;13.57;;;15.80;90.60;;;;;;5070931;28;20041;-58
2021/11/04 01:22:23;;;;;;;17.27;12.82;;;15.70;90.40;;;;;;5071222;28;20044;-58
2021/11/04 01:24:49;;;;;;;16.60;13.55;;;15.70;90.60;;;;;;5070955;28;20041;-57
2021/11/04 01:27:14;;;;;;;15.07;12.27;;;15.70;90.70;;;;;;5072351;28;20069;-58
2021/11/04 01:29:40;;;;;;;15.68;12.80;;;15.70;90.50;;;;;;5068158;28;20036;-58
2021/11/04 01:32:06;;;;;;;16.17;12.95;;;15.70;90.40;;;;;;5070799;28;20051;-58
2021/11/04 01:34:32;;;;;;;15.07;11.93;;;15.80;90.40;;;;;;5070879;28;20082;-58
2021/11/04 01:36:58;;;;;;;17.02;12.93;;;15.80;90.30;;;;;;5072439;28;20036;-58
2021/11/04 01:39:23;;;;;;;15.23;12.10;;;15.70;90.20;;;;;;5068489;28;20036;-58
2021/11/04 01:41:51;;;;;;;15.10;12.57;;;15.70;90.20;;;;;;5056920;28;20039;-67
2021/11/04 01:44:17;;;;;;;25.17;16.23;;;15.70;90.20;;;;;;5087598;28;20129;-67
2021/11/04 01:46:44;;;;;;;32.72;15.73;;;14.90;85.40;;;;;;5072760;28;20107;-67
2021/11/04 01:49:09;;;;;;;55.53;16.48;;;13.80;84.50;;;;;;5070263;28;20047;-67
2021/11/04 01:51:36;;;;;;;24.52;13.13;;;12.80;85.60;;;;;;5031864;28;1114398;-67
2021/11/04 01:54:02;;;;;;;17.27;13.25;;;12.00;90.20;;;;;;5071326;28;20036;-67
2021/11/04 01:56:28;;;;;;;18.50;13.57;;;11.80;92.40;;;;;;5070864;28;20048;-67
2021/11/04 01:58:54;;;;;;;20.25;14.52;;;11.70;93.10;;;;;;5071972;28;20032;-66
2021/11/04 02:01:20;;;;;;;26.73;15.98;;;11.80;92.70;;;;;;5069923;28;20033;-66
2021/11/04 02:04:18;;;;;;;88.32;19.63;;;11.40;91.70;;;;;;5071750;28;20040;-66
2021/11/04 02:06:49;;;;;;;44.40;17.50;;;10.70;91.10;;;;;;5088054;28;20094;-66
2021/11/04 02:09:28;;;;;;;134.55;20.30;;;10.10;91.90;;;;;;5069986;28;20076;-66
2021/11/04 02:12:11;;;;;;;162.98;20.83;;;9.70;92.50;;;;;;5071391;28;20056;-66
2021/11/04 02:14:46;;;;;;;123.65;20.48;;;9.20;92.50;;;;;;5071682;28;20132;-66
2021/11/04 02:17:13;;;;;;;39.35;20.20;;;8.80;93.40;;;;;;5070309;28;20175;-66
2021/11/04 02:19:47;;;;;;;25.48;16.42;;;8.40;94.00;;;;;;5071241;28;20041;-66
2021/11/04 02:22:51;;;;;;;35.38;17.73;;;8.60;95.50;;;;;;5069196;28;20127;-66
2021/11/04 02:25:22;;;;;;;23.70;12.77;;;8.70;95.60;;;;;;5070882;28;20044;-66
2021/11/04 02:27:54;;;;;;;17.23;11.07;;;9.40;96.60;;;;;;5072765;28;20127;-66
2021/11/04 02:30:22;;;;;;;20.42;12.60;;;10.20;97.00;;;;;;5070587;28;20408;-67
2021/11/04 02:32:50;;;;;;;17.63;11.50;;;11.10;96.60;;;;;;5070019;28;20036;-66
2021/11/04 02:35:16;;;;;;;23.45;13.23;;;11.80;96.10;;;;;;5071563;28;20594;-68
2021/11/04 02:37:44;;;;;;;20.65;13.77;;;12.50;95.50;;;;;;5070882;28;21142;-66
2021/11/04 02:40:10;;;;;;;20.35;12.32;;;13.00;94.80;;;;;;5058082;28;20404;-66
2021/11/04 02:42:38;;;;;;;21.27;13.52;;;13.50;94.20;;;;;;5067627;28;20060;-67
2021/11/04 02:45:05;;;;;;;25.17;14.48;;;13.90;93.60;;;;;;5070499;28;20803;-66
2021/11/04 02:47:31;;;;;;;21.10;13.10;;;14.10;93.00;;;;;;5071752;28;20119;-66
2021/11/04 02:49:57;;;;;;;23.27;14.13;;;14.30;92.80;;;;;;5086961;28;20127;-66
2021/11/04 02:52:23;;;;;;;23.52;13.75;;;14.50;92.50;;;;;;5070140;28;20062;-66
2021/11/04 02:54:53;;;;;;;26.48;15.15;;;14.60;92.20;;;;;;5070088;28;20071;-66
2021/11/04 02:57:18;;;;;;;25.58;15.27;;;14.60;91.80;;;;;;5069471;28;20375;-66
2021/11/04 02:59:46;;;;;;;125.43;22.63;;;14.60;91.80;;;;;;5071063;28;20032;-66
2021/11/04 03:02:12;;;;;;;159.80;21.08;;;14.60;90.70;;;;;;5058204;28;20068;-66
2021/11/04 03:04:38;;;;;;;190.18;21.98;;;14.30;90.20;;;;;;5070939;28;20416;-67
2021/11/04 03:07:03;;;;;;;202.75;22.35;;;13.80;88.30;;;;;;5071083;28;20127;-67
2021/11/04 03:09:29;;;;;;;91.75;21.23;;;13.10;87.30;;;;;;5073231;28;20537;-66
2021/11/04 03:11:55;;;;;;;25.30;14.82;;;12.50;89.00;;;;;;5068841;28;20052;-66
2021/11/04 03:14:20;;;;;;;25.77;14.95;;;12.40;91.70;;;;;;5069751;28;20038;-66
2021/11/04 03:16:50;;;;;;;23.02;13.70;;;12.70;92.80;;;;;;5068476;28;20062;-65
2021/11/04 03:19:18;;;;;;;180.60;19.00;;;12.60;92.60;;;;;;5070728;28;20089;-66
2021/11/04 03:21:47;;;;;;;229.45;20.45;;;12.80;93.10;;;;;;5086222;28;20052;-58
2021/11/04 03:24:18;;;;;;;189.15;17.15;;;12.30;90.70;;;;;;5084216;28;20039;-58
2021/11/04 03:26:46;;;;;;;252.77;17.98;;;11.30;90.50;;;;;;5071082;28;20424;-58
2021/11/04 03:29:13;;;;;;;169.02;16.55;;;10.40;91.50;;;;;;5071966;28;20506;-58
2021/11/04 03:31:42;;;;;;;95.05;15.15;;;9.50;92.30;;;;;;5068658;28;20036;-58
2021/11/04 03:34:09;;;;;;;139.70;16.48;;;9.00;94.00;;;;;;5069761;28;20036;-58
2021/11/04 03:36:35;;;;;;;227.70;19.02;;;9.20;95.20;;;;;;5069290;28;20881;-58
2021/11/04 03:39:03;;;;;;;243.43;21.27;;;9.40;94.60;;;;;;5070098;28;20032;-58
2021/11/04 03:41:30;;;;;;;251.77;21.02;;;9.20;93.50;;;;;;5068693;28;20040;-58
2021/11/04 03:43:56;;;;;;;210.05;20.75;;;8.80;93.40;;;;;;5069061;28;20528;-58
2021/11/04 03:46:22;;;;;;;276.77;25.40;;;8.50;93.80;;;;;;5057283;28;20033;-58
2021/11/04 03:48:49;;;;;;;388.85;24.55;;;8.10;94.00;;;;;;5085607;28;20048;-58
2021/11/04 03:51:15;;;;;;;326.08;23.45;;;7.60;94.30;;;;;;5072247;28;20036;-58
2021/11/04 03:53:41;;;;;;;283.90;25.67;;;7.20;94.90;;;;;;5068843;28;20047;-59
2021/11/04 03:56:08;;;;;;;292.25;25.85;;;6.80;95.40;;;;;;5072489;28;21008;-67
2021/11/04 03:58:38;;;;;;;268.20;26.13;;;6.50;95.90;;;;;;5051585;28;20143;-66
2021/11/04 04:01:04;;;;;;;224.70;22.60;;;6.30;96.40;;;;;;5070503;28;20043;-67
2021/11/04 04:03:30;;;;;;;186.57;21.80;;;6.30;96.80;;;;;;5070401;28;20047;-67
2021/11/04 04:06:00;;;;;;;49.92;14.95;;;6.20;97.20;;;;;;5068452;28;20049;-66
2021/11/04 04:08:26;;;;;;;24.50;13.73;;;6.20;97.70;;;;;;5070094;28;20071;-66
2021/11/04 04:10:52;;;;;;;190.95;20.30;;;6.50;98.20;;;;;;5071915;28;20119;-66
2021/11/04 04:13:17;;;;;;;152.15;18.73;;;6.90;98.80;;;;;;5068060;28;20549;-66
2021/11/04 04:15:43;;;;;;;183.32;18.83;;;7.30;98.50;;;;;;5069298;28;20040;-66
2021/11/04 04:18:09;;;;;;;81.65;18.63;;;7.20;97.60;;;;;;5070356;28;20043;-66
2021/11/04 04:20:35;;;;;;;33.45;14.60;;;7.00;97.20;;;;;;5069145;28;20378;-66
2021/11/04 04:23:00;;;;;;;22.63;11.57;;;7.20;97.70;;;;;;5070862;28;20054;-66
2021/11/04 04:25:28;;;;;;;22.98;11.82;;;7.90;98.70;;;;;;5067888;28;20044;-66
2021/11/04 04:27:54;;;;;;;129.50;19.95;;;9.00;99.00;;;;;;5069109;28;20041;-66
2021/11/04 04:30:20;;;;;;;148.13;23.20;;;9.80;98.40;;;;;;5070405;28;20040;-66
2021/11/04 04:32:46;;;;;;;22.98;11.60;;;10.00;96.40;;;;;;5071168;28;20036;-66
2021/11/04 04:35:11;;;;;;;51.75;17.40;;;9.80;95.80;;;;;;5084555;28;20051;-67
2021/11/04 04:37:37;;;;;;;102.32;23.20;;;10.20;96.90;;;;;;5068745;28;20033;-67
2021/11/04 04:40:03;;;;;;;131.75;21.77;;;10.30;95.90;;;;;;5086181;28;20075;-66
2021/11/04 04:42:29;;;;;;;23.00;11.90;;;10.20;95.00;;;;;;5074077;28;20424;-67
2021/11/04 04:44:54;;;;;;;33.08;13.43;;;10.30;95.50;;;;;;5072960;28;20032;-68
2021/11/04 04:47:20;;;;;;;31.00;13.88;;;10.80;96.30;;;;;;5072448;28;20048;-67
2021/11/04 04:49:46;;;;;;;26.02;12.32;;;11.40;96.30;;;;;;5072861;28;20056;-67
2021/11/04 04:52:11;;;;;;;106.32;20.65;;;11.90;96.00;;;;;;5076418;28;20056;-67
2021/11/04 04:54:37;;;;;;;28.50;12.98;;;12.30;94.90;;;;;;5071675;28;20126;-68
2021/11/04 04:57:03;;;;;;;62.40;19.88;;;12.20;93.60;;;;;;5072792;28;20052;-67
2021/11/04 04:59:30;;;;;;;22.63;12.38;;;11.90;93.30;;;;;;5072875;28;20496;-68
2021/11/04 05:01:56;;;;;;;45.83;15.30;;;11.70;93.80;;;;;;5088472;28;20040;-67
2021/11/04 05:04:21;;;;;;;140.32;16.17;;;11.90;94.50;;;;;;5071920;28;20503;-68
2021/11/04 05:06:48;;;;;;;22.38;12.88;;;11.50;93.20;;;;;;5070483;28;20113;-66
2021/11/04 05:09:13;;;;;;;23.25;12.32;;;11.20;93.60;;;;;;5072154;28;20055;-67
2021/11/04 05:11:39;;;;;;;57.85;14.98;;;11.30;94.90;;;;;;5074019;28;20040;-67
2021/11/04 05:14:05;;;;;;;46.75;15.13;;;11.70;95.10;;;;;;5073083;28;20280;-67
2021/11/04 05:16:31;;;;;;;19.67;11.32;;;11.90;94.20;;;;;;5072070;28;20896;-66
2021/11/04 05:18:56;;;;;;;23.05;12.38;;;12.10;94.10;;;;;;5072458;28;20036;-66
2021/11/04 05:21:22;;;;;;;20.40;11.95;;;12.50;94.50;;;;;;5071586;28;20032;-66
2021/11/04 05:23:48;;;;;;;21.13;11.32;;;12.90;94.30;;;;;;5088508;28;20040;-66
2021/11/04 05:26:14;;;;;;;21.90;12.38;;;13.20;93.90;;;;;;5072081;28;20089;-67
2021/11/04 05:28:40;;;;;;;21.58;11.52;;;13.20;92.60;;;;;;5072365;28;20569;-69
2021/11/04 05:31:06;;;;;;;28.45;13.63;;;12.70;92.60;;;;;;5059052;28;20044;-67
2021/11/04 05:33:32;;;;;;;36.53;15.45;;;12.30;93.40;;;;;;5074988;28;20090;-68
2021/11/04 05:35:58;;;;;;;63.38;15.60;;;12.30;93.40;;;;;;5070787;28;20441;-68
2021/11/04 05:38:23;;;;;;;281.13;24.48;;;11.90;92.90;;;;;;5071555;28;20052;-67
2021/11/04 05:40:49;;;;;;;53.60;16.90;;;11.50;92.60;;;;;;5086821;28;20055;-68
2021/11/04 05:43:15;;;;;;;24.38;12.63;;;10.80;92.10;;;;;;5073458;28;20114;-66
2021/11/04 05:45:40;;;;;;;29.30;14.27;;;10.50;94.00;;;;;;5071627;28;20028;-67
2021/11/04 05:48:06;;;;;;;23.45;13.10;;;10.70;95.30;;;;;;5086348;28;20040;-67
2021/11/04 05:50:32;;;;;;;43.00;14.55;;;11.10;95.30;;;;;;5072373;28;20051;-67
2021/11/04 05:53:00;;;;;;;23.40;12.77;;;11.50;95.10;;;;;;5071877;28;20052;-66
2021/11/04 05:55:26;;;;;;;23.52;13.02;;;12.00;95.00;;;;;;5071596;28;20055;-67
2021/11/04 05:57:51;;;;;;;25.15;12.45;;;12.50;94.80;;;;;;5071471;28;20040;-67
2021/11/04 06:00:17;;;;;;;22.00;10.98;;;13.00;94.40;;;;;;5087248;28;20544;-67
2021/11/04 06:02:43;;;;;;;27.98;13.60;;;13.50;93.70;;;;;;5071351;28;20558;-68
2021/11/04 06:05:09;;;;;;;25.67;12.88;;;13.80;93.20;;;;;;5072286;28;20036;-67
2021/11/04 06:07:34;;;;;;;24.38;12.13;;;14.00;92.50;;;;;;5071127;28;20055;-66
2021/11/04 06:10:02;;;;;;;108.07;16.23;;;14.20;92.10;;;;;;5059358;28;20767;-67
2021/11/04 06:12:27;;;;;;;27.02;14.02;;;13.90;89.50;;;;;;5061050;28;20131;-67
2021/11/04 06:14:53;;;;;;;26.90;14.45;;;13.00;87.60;;;;;;5055899;28;20031;-68
2021/11/04 06:17:19;;;;;;;24.02;12.65;;;12.30;87.60;;;;;;5068674;28;20988;-68
2021/11/04 06:19:44;;;;;;;48.60;13.88;;;11.80;88.40;;;;;;5086114;28;20051;-68
2021/11/04 06:22:10;;;;;;;88.35;13.70;;;11.40;88.90;;;;;;5087107;28;20090;-68
2021/11/04 06:24:36;;;;;;;48.00;14.43;;;11.00;89.10;;;;;;5041173;28;20036;-69
2021/11/04 06:27:02;;;;;;;37.40;15.18;;;10.60;89.10;;;;;;5069834;28;20075;-69
2021/11/04 06:29:27;;;;;;;103.65;17.23;;;10.00;89.70;;;;;;5085650;28;20032;-69
2021/11/04 06:31:53;;;;;;;92.65;15.55;;;9.60;90.60;;;;;;5070177;28;20338;-69
2021/11/04 06:34:19;;;;;;;141.13;15.25;;;9.20;91.10;;;;;;5072903;28;20075;-68
2021/11/04 06:36:45;;;;;;;140.27;14.82;;;8.90;91.30;;;;;;5085153;28;20082;-68
2021/11/04 06:39:11;;;;;;;188.85;13.77;;;8.50;91.60;;;;;;5041398;28;20463;-69
2021/11/04 06:41:37;;;;;;;74.95;11.43;;;8.20;92.00;;;;;;5088080;28;20032;-68
2021/11/04 06:44:02;;;;;;;169.35;12.65;;;7.80;92.50;;;;;;5054260;28;20384;-68
2021/11/04 06:46:31;;;;;;;18.13;11.32;;;7.50;92.90;;;;;;5069769;28;20028;-69
2021/11/04 06:49:04;;;;;;;16.85;9.98;;;7.40;93.50;;;;;;5069801;28;20040;-69
2021/11/04 06:51:32;;;;;;;20.55;11.13;;;7.50;94.30;;;;;;5086805;28;20128;-69
2021/11/04 06:54:02;;;;;;;17.40;11.48;;;7.50;94.40;;;;;;5070010;28;20098;-69
2021/11/04 06:56:46;;;;;;;14.27;9.68;;;7.70;94.20;;;;;;5058920;28;20041;-69
2021/11/04 06:59:20;;;;;;;20.42;11.07;;;7.80;94.10;;;;;;5069317;28;20062;-68
2021/11/04 07:02:05;;;;;;;21.58;11.55;;;7.80;94.00;;;;;;5058267;28;20032;-69
2021/11/04 07:04:37;;;;;;;24.15;10.45;;;7.80;93.90;;;;;;5070465;28;20040;-68
2021/11/04 07:07:09;;;;;;;18.08;10.75;;;7.70;93.90;;;;;;5070308;28;20043;-68
2021/11/04 07:09:37;;;;;;;29.25;11.18;;;7.80;93.90;;;;;;5068710;28;20025;-67
2021/11/04 07:12:07;;;;;;;50.33;11.57;;;7.80;93.90;;;;;;5074848;28;20067;-67
2021/11/04 07:14:34;;;;;;;21.83;11.10;;;7.70;93.80;;;;;;5071391;28;20036;-67
2021/11/04 07:17:02;;;;;;;14.80;10.68;;;7.60;94.10;;;;;;5084376;28;20126;-68
2021/11/04 07:19:28;;;;;;;13.98;8.95;;;7.60;94.60;;;;;;5085254;28;20039;-68
2021/11/04 07:22:02;;;;;;;14.63;9.40;;;7.70;94.70;;;;;;5085563;28;20032;-68
2021/11/04 07:25:00;;;;;;;18.15;11.85;;;7.80;94.80;;;;;;5068027;28;20087;-70
2021/11/04 07:27:41;;;;;;;17.65;10.18;;;8.00;94.90;;;;;;5081582;28;20425;-66
2021/11/04 07:30:10;;;;;;;20.45;11.60;;;8.10;94.90;;;;;;5083942;28;20097;-66
2021/11/04 07:32:47;;;;;;;18.45;12.23;;;8.30;94.70;;;;;;5068200;28;20515;-65
2021/11/04 07:35:16;;;;;;;22.55;13.15;;;8.30;94.40;;;;;;5071356;28;20035;-69
2021/11/04 07:37:43;;;;;;;18.60;12.43;;;8.30;94.20;;;;;;5085548;28;20051;-68
2021/11/04 07:40:10;;;;;;;19.40;12.18;;;8.40;94.40;;;;;;5061705;28;22193;-67
2021/11/04 07:42:37;;;;;;;19.55;13.52;;;8.40;94.30;;;;;;5068432;28;20392;-67
2021/11/04 07:45:04;;;;;;;53.70;15.80;;;8.40;94.20;;;;;;5067735;28;20163;-67
2021/11/04 07:47:29;;;;;;;68.88;17.00;;;8.50;94.30;;;;;;5083250;28;20049;-67
2021/11/04 07:49:55;;;;;;;170.45;22.40;;;8.60;94.40;;;;;;5084453;28;20046;-67
2021/11/04 07:52:21;;;;;;;23.77;15.63;;;8.60;94.40;;;;;;5081887;28;20056;-67
2021/11/04 07:54:47;;;;;;;20.08;13.75;;;8.60;94.50;;;;;;5051073;28;20131;-67
2021/11/04 07:57:13;;;;;;;19.48;13.20;;;8.70;94.50;;;;;;5068809;28;20036;-67
2021/11/04 07:59:38;;;;;;;53.15;13.50;;;8.60;94.50;;;;;;5063292;28;20064;-68
2021/11/04 08:02:04;;;;;;;20.35;14.10;;;8.70;94.40;;;;;;5069157;28;20048;-68
2021/11/04 08:04:30;;;;;;;18.52;13.43;;;8.60;94.30;;;;;;5083853;28;20051;-68
2021/11/04 08:06:56;;;;;;;22.08;12.52;;;8.60;94.40;;;;;;5012390;28;20040;-67
2021/11/04 08:09:22;;;;;;;20.58;13.32;;;8.60;94.40;;;;;;5064414;28;20553;-66
2021/11/04 08:11:49;;;;;;;17.95;13.02;;;8.60;94.30;;;;;;5082322;28;20044;-68
2021/11/04 08:14:15;;;;;;;61.42;15.25;;;8.70;94.30;;;;;;5066494;28;20105;-62
2021/11/04 08:16:41;;;;;;;21.70;14.32;;;8.70;94.30;;;;;;5071626;28;20052;-62
2021/11/04 08:19:07;;;;;;;23.27;14.38;;;8.70;94.50;;;;;;5085005;28;20044;-62
2021/11/04 08:21:32;;;;;;;24.33;15.48;;;8.70;94.60;;;;;;5070666;28;20400;-62
2021/11/04 08:23:58;;;;;;;22.13;14.85;;;8.80;94.70;;;;;;5087647;28;20039;-63
2021/11/04 08:26:24;;;;;;;21.02;15.13;;;8.80;94.70;;;;;;5072932;28;20090;-62
2021/11/04 08:28:51;;;;;;;18.85;14.30;;;8.90;94.80;;;;;;5069950;28;20047;-63
2021/11/04 08:31:18;;;;;;;25.38;15.68;;;9.00;94.90;;;;;;5072144;28;20052;-60
2021/11/04 08:33:43;;;;;;;29.52;16.67;;;9.10;95.00;;;;;;5069801;28;20564;-63
2021/11/04 08:36:09;;;;;;;31.40;15.38;;;9.20;95.00;;;;;;5058666;28;20049;-60
2021/11/04 08:38:36;;;;;;;21.95;16.02;;;9.40;95.10;;;;;;5072438;28;20153;-60
2021/11/04 08:41:02;;;;;;;26.00;18.05;;;9.50;95.00;;;;;;5086462;28;20040;-59
2021/11/04 08:43:28;;;;;;;28.50;19.40;;;9.60;95.00;;;;;;5069947;28;20032;-60
2021/11/04 08:45:54;;;;;;;22.08;16.05;;;9.70;95.00;;;;;;5071960;28;20367;-60
2021/11/04 08:48:20;;;;;;;22.10;16.88;;;9.80;95.00;;;;;;5068740;28;20048;-60
2021/11/04 08:50:47;;;;;;;27.25;16.38;;;9.90;94.90;;;;;;5069596;28;20047;-60
2021/11/04 08:53:13;;;;;;;85.50;20.88;;;10.00;95.00;;;;;;5069923;28;20058;-63
2021/11/04 08:55:39;;;;;;;32.30;21.27;;;10.00;94.90;;;;;;5071557;28;20163;-61
2021/11/04 08:58:05;;;;;;;36.10;21.67;;;10.10;94.80;;;;;;5060825;28;20048;-59
2021/11/04 09:00:31;;;;;;;37.97;23.20;;;10.20;94.80;;;;;;5072322;28;20052;-63
2021/11/04 09:02:56;;;;;;;37.55;22.83;;;10.30;94.90;;;;;;5075106;28;20066;-60
2021/11/04 09:05:22;;;;;;;39.50;24.48;;;10.40;94.90;;;;;;5071384;28;20078;-60
2021/11/04 09:07:48;;;;;;;35.20;22.10;;;10.60;94.80;;;;;;5071748;28;20041;-60
2021/11/04 09:10:15;;;;;;;35.00;21.83;;;10.70;94.60;;;;;;5068427;28;20045;-60
2021/11/04 09:12:41;;;;;;;31.77;19.83;;;10.90;94.40;;;;;;5060330;28;20142;-60
2021/11/04 09:15:09;;;;;;;29.90;20.73;;;10.90;94.20;;;;;;5071487;28;20044;-61
2021/11/04 09:17:35;;;;;;;28.85;18.58;;;11.00;94.00;;;;;;5072009;28;20048;-60
2021/11/04 09:20:03;;;;;;;29.95;20.95;;;11.10;94.00;;;;;;5073157;28;20433;-60
2021/11/04 09:22:29;;;;;;;29.85;19.70;;;11.20;94.00;;;;;;5072710;28;20068;-61
2021/11/04 09:24:56;;;;;;;28.92;21.33;;;11.40;94.00;;;;;;5071140;28;20204;-60
2021/11/04 09:27:22;;;;;;;30.05;20.88;;;11.60;93.80;;;;;;5068350;28;20258;-60
2021/11/04 09:29:48;;;;;;;26.23;17.63;;;11.70;93.60;;;;;;5052624;28;20106;-61
2021/11/04 09:32:14;;;;;;;24.52;17.27;;;11.80;93.30;;;;;;5072638;28;20047;-60
2021/11/04 09:34:40;;;;;;;25.70;18.27;;;12.00;93.10;;;;;;5060000;28;20048;-60
2021/11/04 09:37:06;;;;;;;25.58;18.00;;;12.20;93.00;;;;;;5068829;28;20098;-63
2021/11/04 09:39:33;;;;;;;25.50;17.77;;;12.40;92.60;;;;;;5087784;28;20085;-63
2021/11/04 09:41:59;;;;;;;25.02;17.90;;;12.40;92.30;;;;;;5089061;28;20036;-62
2021/11/04 09:44:25;;;;;;;24.85;18.67;;;12.50;92.10;;;;;;5086418;28;20079;-61
2021/11/04 09:46:50;;;;;;;25.95;18.63;;;12.60;91.90;;;;;;5086267;28;20042;-61
2021/11/04 09:49:16;;;;;;;23.90;16.38;;;12.70;91.80;;;;;;5071861;28;20052;-62
2021/11/04 09:51:42;;;;;;;25.52;18.55;;;12.90;91.70;;;;;;5071851;28;20052;-60
2021/11/04 09:54:08;;;;;;;28.00;19.73;;;13.10;91.50;;;;;;5072497;28;20040;-60
2021/11/04 09:56:35;;;;;;;27.92;19.38;;;13.30;91.20;;;;;;5066025;28;20407;-61
2021/11/04 09:59:01;;;;;;;25.67;18.27;;;13.40;91.00;;;;;;5086325;28;20043;-62
2021/11/04 10:01:31;;;;;;;25.65;18.65;;;13.60;91.00;;;;;;5084521;28;20346;-63
2021/11/04 10:03:59;;;;;;;23.92;17.13;;;13.80;90.70;;;;;;5059084;28;20037;-62
2021/11/04 10:06:37;;;;;;;23.65;17.45;;;14.00;90.30;;;;;;5084278;28;20152;-62
2021/11/04 10:09:11;;;;;;;24.13;17.65;;;14.20;89.90;;;;;;5057924;28;20032;-69
2021/11/04 10:11:43;;;;;;;21.90;14.88;;;14.30;88.70;;;;;;5080833;28;20063;-68
2021/11/04 10:14:18;;;;;;;19.20;14.25;;;14.20;87.60;;;;;;5067281;28;20044;-68
2021/11/04 10:16:45;;;;;;;16.73;12.35;;;14.20;87.10;;;;;;5084533;28;20051;-70
2021/11/04 10:19:13;;;;;;;14.75;11.45;;;14.20;86.90;;;;;;5068840;28;20845;-69
2021/11/04 10:21:42;;;;;;;13.85;10.55;;;14.20;86.40;;;;;;5059075;28;20051;-68
2021/11/04 10:24:16;;;;;;;13.15;9.70;;;14.10;85.80;;;;;;5066035;28;20787;-68
2021/11/04 10:26:42;;;;;;;12.77;10.32;;;14.00;85.50;;;;;;5068767;28;20047;-73
2021/11/04 10:29:11;;;;;;;11.80;8.80;;;13.90;85.70;;;;;;5067269;28;20043;-68
2021/11/04 10:31:43;;;;;;;13.10;10.00;;;13.80;85.30;;;;;;5066952;28;20051;-68
2021/11/04 10:34:15;;;;;;;14.13;9.95;;;13.70;85.60;;;;;;5083503;28;20036;-69
2021/11/04 10:36:45;;;;;;;8.25;6.55;;;13.60;85.80;;;;;;5081265;28;20048;-68
2021/11/04 10:39:12;;;;;;;9.38;7.10;;;13.50;85.40;;;;;;5065479;28;20048;-69
2021/11/04 10:41:40;;;;;;;11.50;7.95;;;13.40;85.50;;;;;;5066467;28;20147;-68
2021/11/04 10:44:12;;;;;;;10.85;8.70;;;13.30;85.60;;;;;;5081277;28;20045;-69
2021/11/04 10:46:42;;;;;;;14.18;10.25;;;13.20;85.90;;;;;;5081970;28;20051;-68
2021/11/04 10:49:08;;;;;;;12.73;8.85;;;13.10;86.40;;;;;;5083153;28;20392;-68
2021/11/04 10:51:34;;;;;;;12.05;8.80;;;13.10;86.50;;;;;;5066661;28;20054;-67
2021/11/04 10:54:04;;;;;;;12.48;8.82;;;13.10;86.50;;;;;;5068622;28;20799;-69
2021/11/04 10:56:32;;;;;;;11.20;8.50;;;13.30;86.50;;;;;;5068301;28;20047;-69
2021/11/04 10:59:04;;;;;;;9.57;7.50;;;13.50;86.10;;;;;;5067506;28;20429;-68
2021/11/04 11:01:35;;;;;;;11.90;8.10;;;13.60;85.60;;;;;;5067371;28;20508;-69
2021/11/04 11:04:08;;;;;;;206.10;158.48;;;13.50;85.10;;;;;;5064818;28;20044;-68
2021/11/04 11:06:39;;;;;;;46.47;28.42;;;13.40;85.10;;;;;;5064959;28;20040;-68
2021/11/04 11:09:09;;;;;;;31.13;20.73;;;13.40;88.50;;;;;;5080996;28;20056;-68
2021/11/04 11:11:36;;;;;;;25.50;16.73;;;13.50;92.20;;;;;;5071018;28;20885;-67
2021/11/04 11:14:02;;;;;;;26.52;17.77;;;13.70;93.00;;;;;;5069147;28;20082;-67
2021/11/04 11:16:28;;;;;;;30.40;19.17;;;13.90;92.50;;;;;;5071250;28;20051;-68
2021/11/04 11:18:58;;;;;;;20.83;16.08;;;14.10;92.90;;;;;;5067436;28;20060;-67
2021/11/04 11:21:32;;;;;;;22.95;16.23;;;14.40;92.60;;;;;;5086257;28;20198;-68
2021/11/04 11:23:59;;;;;;;22.00;13.95;;;14.60;92.70;;;;;;5070903;28;20090;-68
2021/11/04 11:26:25;;;;;;;22.65;16.85;;;14.80;91.80;;;;;;5069694;28;20123;-68
2021/11/04 11:28:56;;;;;;;26.15;16.33;;;14.90;91.80;;;;;;5069442;28;22012;-68
2021/11/04 11:31:25;;;;;;;17.30;13.23;;;15.10;91.60;;;;;;5070474;28;20081;-68
2021/11/04 11:34:18;;;;;;;18.52;13.30;;;15.20;91.20;;;;;;5056506;28;20412;-68
2021/11/04 11:37:21;;;;;;;16.08;12.07;;;15.40;90.40;;;;;;5063860;28;20056;-68
2021/11/04 11:40:04;;;;;;;19.35;12.70;;;15.40;90.30;;;;;;5069113;28;20115;-68
2021/11/04 11:42:31;;;;;;;14.18;10.13;;;15.50;90.40;;;;;;5070066;28;20080;-68
2021/11/04 11:45:12;;;;;;;17.38;11.32;;;15.50;90.20;;;;;;5071329;28;20036;-68
2021/11/04 11:47:43;;;;;;;7.88;5.60;;;15.50;87.80;;;;;;5068801;28;20040;-67
2021/11/04 11:50:31;;;;;;;13.38;9.30;;;15.40;87.20;;;;;;5072096;28;20131;-69
2021/11/04 11:52:58;;;;;;;13.27;9.63;;;15.40;88.50;;;;;;5069229;28;20053;-68
2021/11/04 11:55:40;;;;;;;14.15;9.98;;;15.50;89.00;;;;;;5065562;28;20075;-67
2021/11/04 11:58:17;;;;;;;13.40;8.40;;;15.60;89.50;;;;;;5066099;28;20036;-68
2021/11/04 12:01:03;;;;;;;13.70;9.70;;;15.70;88.00;;;;;;5065743;28;20113;-68
2021/11/04 12:03:32;;;;;;;8.55;5.60;;;15.80;88.00;;;;;;5065146;28;20040;-67
2021/11/04 12:06:16;;;;;;;7.72;4.43;;;15.70;86.40;;;;;;5066206;28;20048;-67
2021/11/04 12:08:58;;;;;;;7.70;2.92;;;15.50;81.70;;;;;;5064871;28;20055;-68
2021/11/04 12:11:41;;;;;;;4.45;1.95;;;15.30;81.80;;;;;;5073034;28;20028;-67
2021/11/04 12:14:18;;;;;;;3.67;2.70;;;15.10;81.10;;;;;;5072847;28;20033;-67
2021/11/04 12:17:16;;;;;;;7.13;4.50;;;14.80;82.50;;;;;;5072115;28;20040;-67
2021/11/04 12:19:52;;;;;;;8.50;6.57;;;14.80;84.50;;;;;;5046629;28;20052;-67
2021/11/04 12:22:17;;;;;;;9.82;6.78;;;14.80;86.10;;;;;;5074516;28;20396;-66
2021/11/04 12:24:52;;;;;;;7.32;4.78;;;15.00;87.90;;;;;;5074285;28;20032;-67
2021/11/04 12:27:21;;;;;;;11.70;7.18;;;15.30;86.60;;;;;;5072360;28;20114;-67
2021/11/04 12:29:51;;;;;;;8.07;6.22;;;15.50;86.30;;;;;;5070825;28;20040;-67
2021/11/04 12:32:23;;;;;;;5.72;4.45;;;15.60;86.80;;;;;;5072210;28;20123;-66
2021/11/04 12:35:01;;;;;;;7.85;5.32;;;15.70;84.20;;;;;;5073470;28;20042;-67
2021/11/04 12:37:32;;;;;;;5.38;3.22;;;15.70;83.70;;;;;;5072974;28;20492;-67